Time;durP1;ratioP1;P1;durP2;ratioP2;P2;SDS_P1;SDS_P2;PMS_P1;PMS_P2;Temp;Humidity;BMP_temperature;BMP_pressure;BME280_temperature;BME280_humidity;BME280_pressure;Samples;Min_cycle;Max_cycle;Signal;HPM_P1;HPM_P2
2022/09/13 00:00:42;;;;;;;0.30;0.30;;;;;;;14.94;84.53;99439.31;5105486;28;20035;-70
2022/09/13 00:03:09;;;;;;;0.22;0.22;;;;;;;14.90;85.30;99429.91;5105562;28;20096;-70
2022/09/13 00:05:35;;;;;;;0.30;0.30;;;;;;;14.94;85.70;99413.19;5105478;28;20050;-70
2022/09/13 00:08:01;;;;;;;2.08;1.95;;;;;;;14.85;86.25;99415.28;5105565;28;20052;-70
2022/09/13 00:10:26;;;;;;;0.30;0.30;;;;;;;14.78;86.82;99408.59;5105558;28;20016;-69
2022/09/13 00:12:52;;;;;;;0.30;0.30;;;;;;;14.82;87.25;99391.91;5105314;28;20027;-71
2022/09/13 00:15:18;;;;;;;0.30;0.30;;;;;;;14.91;87.09;99379.34;5105681;28;20030;-69
2022/09/13 00:17:43;;;;;;;0.30;0.30;;;;;;;14.94;88.02;99377.47;5105522;28;20088;-70
2022/09/13 00:20:09;;;;;;;0.30;0.30;;;;;;;14.83;88.93;99370.09;5087040;28;20024;-71
2022/09/13 00:22:35;;;;;;;0.45;0.45;;;;;;;14.76;89.67;99363.38;5087158;28;20098;-70
2022/09/13 00:25:01;;;;;;;0.40;0.40;;;;;;;14.73;90.28;99347.81;5105441;28;20035;-71
2022/09/13 00:27:26;;;;;;;0.55;0.55;;;;;;;14.80;90.38;99346.69;5105351;28;20103;-72
2022/09/13 00:29:52;;;;;;;0.55;0.55;;;;;;;14.69;91.28;99344.53;5105348;28;20028;-73
2022/09/13 00:32:17;;;;;;;0.45;0.45;;;;;;;14.61;92.33;99331.78;5105146;28;20043;-73
2022/09/13 00:34:43;;;;;;;0.30;0.30;;;;;;;14.57;92.92;99314.53;5105531;28;20119;-72
2022/09/13 00:37:08;;;;;;;0.30;0.30;;;;;;;14.66;92.73;99309.84;5105242;28;20081;-72
2022/09/13 00:39:34;;;;;;;0.30;0.30;;;;;;;14.67;93.29;99308.91;5087156;28;20096;-72
2022/09/13 00:41:59;;;;;;;0.30;0.30;;;;;;;14.59;93.76;99307.50;5105361;28;20031;-72
2022/09/13 00:44:59;;;;;;;0.60;0.60;;;;;;;14.61;94.09;99287.38;5087030;28;20046;-71
2022/09/13 00:47:33;;;;;;;0.40;0.40;;;;;;;14.62;94.01;99283.84;5104725;28;20044;-71
2022/09/13 00:50:04;;;;;;;0.50;0.50;;;;;;;14.54;94.78;99291.16;5105308;28;20028;-71
2022/09/13 00:52:32;;;;;;;2.83;2.63;;;;;;;14.47;95.48;99259.22;5105067;28;20355;-72
2022/09/13 00:55:08;;;;;;;0.30;0.30;;;;;;;14.59;95.25;99257.00;5105140;28;20056;-71
2022/09/13 00:57:35;;;;;;;0.32;0.32;;;;;;;14.49;96.30;99261.78;5087051;28;20165;-72
2022/09/13 01:00:19;;;;;;;0.30;0.30;;;;;;;14.53;96.59;99259.91;5105362;28;20024;-72
2022/09/13 01:02:57;;;;;;;0.75;0.75;;;;;;;14.44;97.17;99232.44;5104977;28;20051;-73
2022/09/13 01:05:26;;;;;;;0.38;0.38;;;;;;;14.48;97.21;99236.59;5105226;28;20453;-73
2022/09/13 01:07:54;;;;;;;0.50;0.50;;;;;;;14.47;96.74;99216.63;5105067;28;20448;-72
2022/09/13 01:10:22;;;;;;;0.30;0.30;;;;;;;14.53;97.11;99221.59;5108019;28;20037;-73
2022/09/13 01:12:58;;;;;;;0.32;0.32;;;;;;;14.49;97.88;99212.16;5108884;28;20028;-73
2022/09/13 01:15:23;;;;;;;0.30;0.30;;;;;;;14.47;97.96;99206.19;5108903;28;20019;-74
2022/09/13 01:17:53;;;;;;;0.30;0.30;;;;;;;14.54;98.10;99202.38;5108596;28;20392;-73
2022/09/13 01:20:24;;;;;;;1.65;0.77;;;;;;;14.56;98.02;99195.31;5108339;28;20032;-72
2022/09/13 01:22:49;;;;;;;0.40;0.40;;;;;;;14.49;98.69;99183.44;5108930;28;20020;-72
2022/09/13 01:25:35;;;;;;;0.35;0.35;;;;;;;14.55;98.69;99177.13;5108379;28;20103;-72
2022/09/13 01:28:41;;;;;;;0.45;0.45;;;;;;;14.52;98.98;99180.69;5108451;28;20024;-72
2022/09/13 01:31:19;;;;;;;0.30;0.30;;;;;;;14.48;98.77;99150.41;5108545;28;20027;-73
2022/09/13 01:33:55;;;;;;;0.52;0.52;;;;;;;14.54;98.57;99164.94;5108640;28;20024;-72
2022/09/13 01:36:41;;;;;;;0.30;0.30;;;;;;;14.58;98.19;99136.03;5108562;28;20016;-72
2022/09/13 01:39:32;;;;;;;0.30;0.30;;;;;;;14.44;98.92;99133.22;5089684;28;20032;-71
2022/09/13 01:42:15;;;;;;;0.30;0.30;;;;;;;14.38;99.94;99152.59;5090041;28;20444;-72
2022/09/13 01:44:50;;;;;;;0.30;0.30;;;;;;;14.36;99.97;99138.78;5108171;28;20028;-73
2022/09/13 01:47:31;;;;;;;0.30;0.30;;;;;;;14.32;100.00;99134.59;5107958;28;20024;-73
2022/09/13 01:50:14;;;;;;;1.10;1.10;;;;;;;14.33;100.00;99138.91;5108320;28;20032;-71
2022/09/13 01:52:40;;;;;;;0.30;0.30;;;;;;;14.33;100.00;99139.75;5107823;28;20043;-71
2022/09/13 01:55:26;;;;;;;0.30;0.30;;;;;;;14.34;100.00;99140.59;5108188;28;20028;-71
2022/09/13 01:57:54;;;;;;;0.30;0.30;;;;;;;14.43;100.00;99121.91;5108119;28;20023;-72
2022/09/13 02:00:19;;;;;;;0.75;0.75;;;;;;;14.47;100.00;99099.13;5108141;28;20081;-71
2022/09/13 02:02:54;;;;;;;0.30;0.30;;;;;;;14.50;100.00;99083.31;5088483;28;20418;-72
2022/09/13 02:05:45;;;;;;;0.30;0.30;;;;;;;14.50;100.00;99065.03;5106778;28;20478;-73
2022/09/13 02:08:20;;;;;;;0.30;0.30;;;;;;;14.49;100.00;99047.66;5088783;28;20039;-73
2022/09/13 02:10:53;;;;;;;0.30;0.30;;;;;;;14.41;100.00;99003.63;5107956;28;20383;-73
2022/09/13 02:13:25;;;;;;;1.20;0.95;;;;;;;14.30;100.00;99040.69;5089615;28;20387;-73
2022/09/13 02:15:54;;;;;;;0.40;0.40;;;;;;;14.24;100.00;99012.25;5107873;28;20398;-74
2022/09/13 02:18:42;;;;;;;0.32;0.32;;;;;;;14.19;100.00;99032.50;5107689;28;20028;-74
2022/09/13 02:21:13;;;;;;;0.30;0.30;;;;;;;14.21;100.00;99059.38;5106654;28;20024;-74
2022/09/13 02:23:46;;;;;;;0.40;0.40;;;;;;;14.21;100.00;99033.28;5107784;28;20044;-75
2022/09/13 02:26:14;;;;;;;0.52;0.52;;;;;;;14.21;100.00;99038.50;5107818;28;20269;-76
2022/09/13 02:28:48;;;;;;;0.30;0.30;;;;;;;14.23;100.00;99024.44;5108042;28;20032;-75
2022/09/13 02:31:19;;;;;;;0.45;0.45;;;;;;;14.27;100.00;98985.16;5106966;28;20024;-74
2022/09/13 02:33:52;;;;;;;0.40;0.40;;;;;;;14.30;100.00;99030.25;5106729;28;20024;-75
2022/09/13 02:36:25;;;;;;;0.30;0.30;;;;;;;14.33;100.00;99060.59;5088178;28;20264;-73
2022/09/13 02:39:00;;;;;;;0.30;0.30;;;;;;;14.38;100.00;99056.00;5106688;28;20476;-73
2022/09/13 02:41:54;;;;;;;0.35;0.35;;;;;;;14.45;100.00;99038.28;5088861;28;20046;-74
2022/09/13 02:44:27;;;;;;;0.30;0.30;;;;;;;14.52;100.00;99042.28;5107228;28;20026;-74
2022/09/13 02:47:21;;;;;;;0.40;0.40;;;;;;;14.60;100.00;99013.22;5107084;28;20051;-74
2022/09/13 02:50:21;;;;;;;0.30;0.30;;;;;;;14.59;100.00;99016.72;5088991;28;20050;-74
2022/09/13 02:52:49;;;;;;;0.30;0.30;;;;;;;14.71;100.00;99000.47;5107086;28;20438;-74
2022/09/13 02:55:25;;;;;;;0.30;0.30;;;;;;;14.75;100.00;99006.41;5106901;28;20074;-74
2022/09/13 02:57:53;;;;;;;0.30;0.30;;;;;;;14.77;100.00;99015.03;5107064;28;20042;-73
2022/09/13 03:00:18;;;;;;;0.30;0.30;;;;;;;14.81;100.00;99005.31;5106840;28;20034;-73
2022/09/13 03:02:45;;;;;;;0.30;0.30;;;;;;;14.83;100.00;99006.91;5106664;28;20023;-73
2022/09/13 03:05:11;;;;;;;0.30;0.30;;;;;;;14.82;100.00;98992.16;5106894;28;20024;-74
2022/09/13 03:07:36;;;;;;;0.30;0.30;;;;;;;14.87;100.00;98999.78;5106756;28;20043;-73
2022/09/13 03:10:08;;;;;;;0.30;0.30;;;;;;;14.95;100.00;99017.69;5107005;28;20022;-73
2022/09/13 03:12:51;;;;;;;0.40;0.40;;;;;;;14.97;100.00;99010.59;5106601;28;20016;-74
2022/09/13 03:15:48;;;;;;;0.28;0.28;;;;;;;15.03;100.00;99009.47;5106650;28;20049;-74
2022/09/13 03:18:24;;;;;;;0.30;0.30;;;;;;;15.03;100.00;98997.22;5084661;28;20119;-73
2022/09/13 03:21:32;;;;;;;0.30;0.30;;;;;;;15.04;100.00;99006.78;5087969;28;20031;-72
2022/09/13 03:24:22;;;;;;;0.30;0.30;;;;;;;15.06;100.00;99004.94;5106368;28;20024;-73
2022/09/13 03:27:23;;;;;;;0.30;0.30;;;;;;;15.05;100.00;98997.19;5106017;28;20020;-74
2022/09/13 03:30:03;;;;;;;0.30;0.30;;;;;;;15.02;100.00;99002.53;5105266;28;20024;-73
2022/09/13 03:32:49;;;;;;;0.30;0.30;;;;;;;14.91;100.00;99001.31;5105408;28;20024;-72
2022/09/13 03:35:33;;;;;;;0.30;0.30;;;;;;;14.80;100.00;99014.03;5106381;28;20031;-73
2022/09/13 03:38:10;;;;;;;0.30;0.30;;;;;;;14.69;100.00;99012.78;5106340;28;20028;-72
2022/09/13 03:40:42;;;;;;;0.30;0.30;;;;;;;14.59;100.00;99006.28;5087788;28;20031;-71
2022/09/13 03:43:13;;;;;;;0.40;0.40;;;;;;;14.49;100.00;99011.94;5106166;28;20034;-71
2022/09/13 03:45:47;;;;;;;0.32;0.32;;;;;;;14.37;100.00;99010.78;5105811;28;20042;-72
2022/09/13 03:48:13;;;;;;;0.30;0.30;;;;;;;14.29;100.00;98997.22;5105474;28;20059;-72
2022/09/13 03:50:39;;;;;;;0.30;0.30;;;;;;;14.22;100.00;99004.50;5105892;28;20032;-70
2022/09/13 03:53:11;;;;;;;0.22;0.22;;;;;;;14.16;100.00;98996.94;5106049;28;20031;-71
2022/09/13 03:55:41;;;;;;;0.40;0.40;;;;;;;14.09;100.00;98996.38;5105935;28;20035;-71
2022/09/13 03:58:15;;;;;;;0.30;0.30;;;;;;;14.07;100.00;99000.00;5106910;28;20034;-71
2022/09/13 04:00:41;;;;;;;0.30;0.30;;;;;;;14.02;100.00;98992.38;5106120;28;20125;-72
2022/09/13 04:03:07;;;;;;;0.30;0.30;;;;;;;13.99;100.00;98998.56;5087768;28;20024;-68
2022/09/13 04:05:33;;;;;;;0.20;0.20;;;;;;;13.95;100.00;98990.94;5106795;28;20104;-71
2022/09/13 04:08:00;;;;;;;0.30;0.30;;;;;;;13.84;100.00;99007.94;5107227;28;20067;-70
2022/09/13 04:10:26;;;;;;;0.30;0.30;;;;;;;13.78;100.00;98996.91;5088612;28;20027;-70
2022/09/13 04:12:53;;;;;;;0.30;0.30;;;;;;;13.69;100.00;98995.59;5105967;28;20036;-70
2022/09/13 04:15:21;;;;;;;0.38;0.38;;;;;;;13.62;100.00;98995.00;5106436;28;20098;-69
2022/09/13 04:17:47;;;;;;;0.30;0.30;;;;;;;13.61;100.00;98994.13;5112429;28;20008;-70
2022/09/13 04:20:12;;;;;;;0.30;0.30;;;;;;;13.62;100.00;98985.44;5117728;28;20029;-71
2022/09/13 04:22:38;;;;;;;0.30;0.30;;;;;;;13.63;100.00;98997.53;5110891;28;20079;-72
2022/09/13 04:25:04;;;;;;;0.30;0.30;;;;;;;13.69;100.00;98991.19;5107769;28;20092;-72
2022/09/13 04:27:30;;;;;;;0.30;0.30;;;;;;;13.71;100.00;98980.69;5087641;28;20024;-71
2022/09/13 04:29:55;;;;;;;0.30;0.30;;;;;;;13.75;100.00;98984.88;5105911;28;20024;-72
2022/09/13 04:32:20;;;;;;;0.30;0.30;;;;;;;13.77;100.00;98988.25;5105260;28;20054;-71
2022/09/13 04:34:46;;;;;;;0.30;0.30;;;;;;;13.77;100.00;98996.06;5105756;28;20464;-72
2022/09/13 04:37:12;;;;;;;0.30;0.30;;;;;;;13.77;100.00;98993.47;5105439;28;20020;-70
2022/09/13 04:39:37;;;;;;;0.30;0.30;;;;;;;13.75;100.00;98992.69;5105498;28;20031;-71
2022/09/13 04:42:03;;;;;;;0.30;0.30;;;;;;;13.73;100.00;98995.38;5106002;28;20028;-71
2022/09/13 04:44:30;;;;;;;0.40;0.40;;;;;;;13.70;100.00;98998.13;5107626;28;20028;-70
2022/09/13 04:46:55;;;;;;;0.30;0.30;;;;;;;13.71;100.00;98991.13;5109614;28;20042;-71
2022/09/13 04:49:20;;;;;;;0.32;0.32;;;;;;;13.70;100.00;98998.13;5109461;28;20044;-71
2022/09/13 04:51:47;;;;;;;0.30;0.30;;;;;;;13.70;100.00;98989.44;5109414;28;20027;-71
2022/09/13 04:54:18;;;;;;;0.30;0.30;;;;;;;13.67;100.00;98979.16;5112437;28;20034;-71
2022/09/13 04:56:44;;;;;;;0.40;0.40;;;;;;;13.67;100.00;98979.16;5109618;28;20046;-70
2022/09/13 04:59:11;;;;;;;0.30;0.30;;;;;;;13.65;100.00;98973.16;5109612;28;20488;-70
2022/09/13 05:01:36;;;;;;;0.50;0.50;;;;;;;13.63;100.00;98962.78;5109052;28;20026;-69
2022/09/13 05:04:03;;;;;;;0.30;0.30;;;;;;;13.67;100.00;98969.56;5109371;28;20052;-70
2022/09/13 05:06:29;;;;;;;0.40;0.40;;;;;;;13.67;100.00;98977.41;5109209;28;20087;-70
2022/09/13 05:08:55;;;;;;;0.30;0.30;;;;;;;13.65;100.00;98976.59;5109231;28;20024;-70
2022/09/13 05:11:25;;;;;;;0.30;0.30;;;;;;;13.60;100.00;98976.81;5108970;28;20081;-69
2022/09/13 05:13:54;;;;;;;0.40;0.40;;;;;;;13.47;100.00;98984.28;5109130;28;20020;-70
2022/09/13 05:16:27;;;;;;;0.30;0.30;;;;;;;13.35;100.00;98984.81;5109281;28;20020;-71
2022/09/13 05:18:53;;;;;;;0.40;0.40;;;;;;;13.17;100.00;98981.22;5109209;28;20020;-71
2022/09/13 05:21:20;;;;;;;0.30;0.30;;;;;;;13.01;100.00;98990.56;5108802;28;20042;-67
2022/09/13 05:23:52;;;;;;;0.30;0.30;;;;;;;12.87;100.00;98983.31;5108841;28;20426;-68
2022/09/13 05:26:19;;;;;;;0.30;0.30;;;;;;;12.85;100.00;98979.91;5109146;28;20028;-69
2022/09/13 05:28:44;;;;;;;0.30;0.30;;;;;;;12.81;100.00;98980.09;5108821;28;20016;-69
2022/09/13 05:31:17;;;;;;;0.30;0.30;;;;;;;12.80;100.00;98981.84;5108671;28;20020;-68
2022/09/13 05:33:45;;;;;;;0.30;0.30;;;;;;;12.82;100.00;98981.78;5108509;28;20020;-69
2022/09/13 05:36:11;;;;;;;0.40;0.40;;;;;;;12.85;100.00;98982.50;5108546;28;20476;-70
2022/09/13 05:38:36;;;;;;;0.30;0.30;;;;;;;12.87;100.00;98978.09;5108192;28;20038;-69
2022/09/13 05:41:03;;;;;;;0.30;0.30;;;;;;;12.92;100.00;98980.50;5108311;28;20027;-69
2022/09/13 05:43:31;;;;;;;0.30;0.30;;;;;;;12.91;100.00;98980.56;5108312;28;20251;-70
2022/09/13 05:46:10;;;;;;;0.30;0.30;;;;;;;12.93;100.00;98983.94;5108178;28;20032;-70
2022/09/13 05:48:36;;;;;;;0.40;0.40;;;;;;;12.89;100.00;98973.66;5089298;28;20072;-73
2022/09/13 05:51:06;;;;;;;0.30;0.30;;;;;;;12.94;100.00;98986.50;5108499;28;20031;-73
2022/09/13 05:53:32;;;;;;;0.30;0.30;;;;;;;12.83;100.00;98965.25;5108439;28;20031;-73
2022/09/13 05:55:58;;;;;;;0.35;0.35;;;;;;;13.00;100.00;98994.03;5108164;28;20066;-72
2022/09/13 05:58:23;;;;;;;0.40;0.40;;;;;;;13.01;100.00;98981.88;5108298;28;20111;-71
2022/09/13 06:00:55;;;;;;;0.40;0.40;;;;;;;13.02;100.00;98983.56;5089863;28;20016;-73
2022/09/13 06:03:22;;;;;;;0.30;0.30;;;;;;;13.03;100.00;98982.66;5107991;28;20028;-73
2022/09/13 06:05:48;;;;;;;0.35;0.35;;;;;;;13.02;100.00;98983.56;5107924;28;20034;-75
2022/09/13 06:08:13;;;;;;;0.30;0.30;;;;;;;13.12;100.00;98987.50;5108013;28;20040;-75
2022/09/13 06:10:39;;;;;;;0.30;0.30;;;;;;;13.19;100.00;98982.03;5107928;28;20076;-77
2022/09/13 06:13:04;;;;;;;0.30;0.30;;;;;;;13.27;100.00;98980.78;5107596;28;20043;-76
2022/09/13 06:15:30;;;;;;;0.40;0.40;;;;;;;13.67;100.00;98980.00;5107739;28;20024;-77
2022/09/13 06:17:55;;;;;;;0.30;0.30;;;;;;;14.35;100.00;98981.28;5107344;28;20042;-77
2022/09/13 06:20:20;;;;;;;0.30;0.30;;;;;;;14.90;100.00;98972.66;5107743;28;20016;-79
2022/09/13 06:22:49;;;;;;;0.40;0.40;;;;;;;15.04;100.00;98970.19;5089512;28;20047;-78
2022/09/13 06:25:15;;;;;;;0.30;0.30;;;;;;;14.91;100.00;98964.72;5089351;28;20024;-76
2022/09/13 06:27:40;;;;;;;0.30;0.30;;;;;;;14.80;100.00;98972.25;5107668;28;20391;-76
2022/09/13 06:30:07;;;;;;;0.30;0.30;;;;;;;15.11;100.00;98971.56;5107523;28;20452;-75
2022/09/13 06:32:36;;;;;;;0.30;0.30;;;;;;;15.49;100.00;98983.59;5088641;28;20024;-76
2022/09/13 06:35:01;;;;;;;0.30;0.30;;;;;;;15.85;100.00;98970.44;5107442;28;20471;-76
2022/09/13 06:37:27;;;;;;;0.30;0.30;;;;;;;16.42;100.00;98970.91;5107634;28;20046;-77
2022/09/13 06:39:52;;;;;;;0.30;0.30;;;;;;;16.82;100.00;98960.75;5107363;28;20022;-78
2022/09/13 06:42:17;;;;;;;0.30;0.30;;;;;;;16.99;100.00;98964.19;5107304;28;20024;-77
2022/09/13 06:44:44;;;;;;;0.30;0.30;;;;;;;17.48;100.00;98966.66;5107332;28;20455;-78
2022/09/13 06:47:10;;;;;;;0.20;0.20;;;;;;;18.07;100.00;98960.41;5106962;28;20026;-77
2022/09/13 06:49:36;;;;;;;0.30;0.30;;;;;;;17.92;100.00;98962.22;5107454;28;20051;-77
2022/09/13 06:52:01;;;;;;;0.30;0.30;;;;;;;17.47;100.00;98955.31;5088790;28;20024;-77
2022/09/13 06:54:27;;;;;;;0.20;0.20;;;;;;;16.97;100.00;98945.09;5107282;28;20016;-77
2022/09/13 06:56:52;;;;;;;0.20;0.20;;;;;;;16.53;99.46;98954.59;5107054;28;20050;-76
2022/09/13 06:59:17;;;;;;;0.20;0.20;;;;;;;16.09;98.64;98968.28;5088775;28;20491;-76
2022/09/13 07:01:43;;;;;;;0.30;0.30;;;;;;;15.72;98.82;98971.09;5106664;28;20034;-75
2022/09/13 07:04:12;;;;;;;0.20;0.20;;;;;;;15.35;99.09;98957.34;5088522;28;20138;-76
2022/09/13 07:06:40;;;;;;;0.30;0.30;;;;;;;15.14;100.00;98954.91;5106304;28;20080;-77
2022/09/13 07:09:07;;;;;;;0.30;0.30;;;;;;;15.03;100.00;98950.19;5106905;28;20049;-77
2022/09/13 07:11:36;;;;;;;0.30;0.30;;;;;;;14.96;100.00;98946.22;5106550;28;20095;-76
2022/09/13 07:14:02;;;;;;;0.30;0.30;;;;;;;15.60;100.00;98963.88;5106736;28;20031;-76
2022/09/13 07:16:30;;;;;;;0.30;0.30;;;;;;;15.88;100.00;98964.19;5106658;28;20457;-78
2022/09/13 07:18:58;;;;;;;0.30;0.30;;;;;;;15.94;100.00;98959.47;5106417;28;20484;-77
2022/09/13 07:21:24;;;;;;;0.38;0.38;;;;;;;15.76;96.54;98961.31;5106577;28;20054;-77
2022/09/13 07:23:51;;;;;;;0.30;0.30;;;;;;;16.02;99.47;98966.09;5106675;28;20039;-77
2022/09/13 07:26:16;;;;;;;0.30;0.30;;;;;;;16.55;97.66;98965.81;5106089;28;20020;-77
2022/09/13 07:28:47;;;;;;;0.20;0.20;;;;;;;16.63;92.76;98955.72;5105723;28;20060;-79
2022/09/13 07:31:13;;;;;;;0.30;0.30;;;;;;;17.02;89.16;98966.63;5105695;28;20048;-79
2022/09/13 07:33:40;;;;;;;0.30;0.30;;;;;;;17.20;86.73;98945.53;5106097;28;20182;-80
2022/09/13 07:36:06;;;;;;;0.30;0.30;;;;;;;17.38;84.43;98955.88;5106393;28;20027;-79
2022/09/13 07:38:34;;;;;;;0.20;0.20;;;;;;;17.60;85.29;98955.41;5106537;28;20084;-80
2022/09/13 07:40:59;;;;;;;0.30;0.30;;;;;;;17.89;86.58;98954.53;5106537;28;20175;-79
2022/09/13 07:43:25;;;;;;;0.20;0.20;;;;;;;18.35;81.87;98955.22;5087910;28;20491;-80
2022/09/13 07:45:59;;;;;;;0.30;0.30;;;;;;;18.45;80.55;98945.81;5088033;28;20050;-79
2022/09/13 07:48:27;;;;;;;1.73;1.63;;;;;;;18.25;72.22;98941.81;5104541;28;20446;-78
2022/09/13 07:51:03;;;;;;;0.20;0.20;;;;;;;17.74;75.51;98962.41;5087989;28;20562;-80
2022/09/13 07:53:30;;;;;;;0.40;0.40;;;;;;;17.32;73.38;98957.91;5087999;28;20031;-78
2022/09/13 07:56:04;;;;;;;0.20;0.20;;;;;;;16.96;72.42;98943.41;5106100;28;20048;-80
2022/09/13 07:58:31;;;;;;;0.63;0.63;;;;;;;16.80;73.68;98952.16;5106173;28;20026;-81
2022/09/13 08:01:03;;;;;;;0.30;0.30;;;;;;;16.67;74.67;98951.16;5088018;28;20088;-79
2022/09/13 08:03:29;;;;;;;0.20;0.20;;;;;;;16.55;74.72;98950.13;5105687;28;20039;-79
2022/09/13 08:05:54;;;;;;;0.30;0.30;;;;;;;16.36;74.08;98940.66;5087677;28;20020;-79
2022/09/13 08:08:20;;;;;;;0.20;0.20;;;;;;;16.45;71.27;98957.63;5105891;28;20024;-78
2022/09/13 08:10:45;;;;;;;0.30;0.30;;;;;;;16.60;71.51;98933.19;5105766;28;20020;-78
2022/09/13 08:13:10;;;;;;;0.40;0.40;;;;;;;16.47;72.40;98945.28;5105749;28;20050;-78
2022/09/13 08:15:36;;;;;;;0.30;0.30;;;;;;;16.65;74.00;98940.78;5105750;28;20023;-76
2022/09/13 08:18:01;;;;;;;0.52;0.52;;;;;;;17.27;70.49;98943.41;5105084;28;20026;-77
2022/09/13 08:20:26;;;;;;;0.30;0.30;;;;;;;17.64;68.58;98932.41;5105610;28;20048;-77
2022/09/13 08:22:52;;;;;;;0.20;0.20;;;;;;;17.91;67.79;98948.25;5087505;28;20024;-77
2022/09/13 08:25:17;;;;;;;0.30;0.30;;;;;;;17.91;68.08;98944.75;5105736;28;20050;-77
2022/09/13 08:27:42;;;;;;;0.30;0.30;;;;;;;18.23;70.01;98931.41;5105894;28;20027;-77
2022/09/13 08:30:08;;;;;;;0.28;0.28;;;;;;;19.04;66.57;98930.59;5105756;28;20024;-77
2022/09/13 08:32:34;;;;;;;0.22;0.22;;;;;;;19.56;59.38;98936.72;5105210;28;20024;-78
2022/09/13 08:34:59;;;;;;;0.20;0.20;;;;;;;19.49;58.13;98921.44;5105812;28;20085;-78
2022/09/13 08:37:24;;;;;;;0.20;0.20;;;;;;;19.55;56.14;98928.91;5105730;28;20445;-78
2022/09/13 08:39:50;;;;;;;0.20;0.20;;;;;;;19.45;57.96;98939.25;5104554;28;20020;-78
2022/09/13 08:42:22;;;;;;;0.20;0.20;;;;;;;19.04;56.36;98936.66;5105605;28;20024;-77
2022/09/13 08:44:53;;;;;;;0.20;0.20;;;;;;;19.30;61.14;98936.72;5087542;28;20039;-77
2022/09/13 08:47:36;;;;;;;0.30;0.30;;;;;;;19.89;56.91;98921.25;5105096;28;20089;-77
2022/09/13 08:50:05;;;;;;;0.20;0.20;;;;;;;19.85;54.78;98930.34;5105762;28;20070;-77
2022/09/13 08:52:46;;;;;;;0.57;0.57;;;;;;;19.74;55.12;98925.84;5087251;28;20040;-78
2022/09/13 08:55:24;;;;;;;0.30;0.30;;;;;;;19.33;54.24;98930.38;5105677;28;20078;-80
2022/09/13 08:58:06;;;;;;;0.30;0.30;;;;;;;18.99;53.38;98930.03;5087633;28;20024;-78
2022/09/13 09:00:39;;;;;;;0.55;0.55;;;;;;;18.60;56.23;98937.84;5105754;28;20020;-78
2022/09/13 09:03:25;;;;;;;0.20;0.20;;;;;;;18.32;58.70;98930.00;5105073;28;20020;-78
2022/09/13 09:05:51;;;;;;;0.22;0.22;;;;;;;18.33;56.99;98926.41;5105332;28;20016;-78
2022/09/13 09:08:40;;;;;;;0.77;0.77;;;;;;;18.30;55.91;98932.72;5105216;28;20537;-76
2022/09/13 09:11:21;;;;;;;0.20;0.20;;;;;;;18.02;56.21;98918.69;5105413;28;20445;-77
2022/09/13 09:14:22;;;;;;;0.30;0.30;;;;;;;17.63;56.35;98933.38;5105422;28;20027;-78
2022/09/13 09:16:54;;;;;;;0.25;0.25;;;;;;;17.21;59.20;98929.72;5101599;28;20072;-78
2022/09/13 09:19:41;;;;;;;0.30;0.30;;;;;;;16.88;60.14;98933.38;5105310;28;20023;-78
2022/09/13 09:22:18;;;;;;;0.30;0.30;;;;;;;16.63;60.87;98913.81;5086702;28;20031;-76
2022/09/13 09:24:52;;;;;;;0.73;0.73;;;;;;;16.41;61.83;98914.19;5105440;28;20020;-77
2022/09/13 09:27:19;;;;;;;0.25;0.25;;;;;;;16.35;64.07;98916.25;5105172;28;20023;-78
2022/09/13 09:29:47;;;;;;;0.35;0.35;;;;;;;16.16;63.71;98903.34;5087635;28;20103;-77
2022/09/13 09:32:31;;;;;;;0.30;0.30;;;;;;;15.73;65.07;98919.63;5108380;28;20020;-69
2022/09/13 09:35:02;;;;;;;0.85;0.85;;;;;;;15.10;67.98;98912.38;5108889;28;20035;-72
2022/09/13 09:37:29;;;;;;;0.40;0.40;;;;;;;14.45;70.56;98902.50;5108836;28;20024;-71
2022/09/13 09:40:06;;;;;;;0.30;0.30;;;;;;;13.99;73.54;98906.41;5108791;28;20028;-71
2022/09/13 09:42:40;;;;;;;0.50;0.50;;;;;;;13.73;75.47;98913.66;5108565;28;20035;-71
2022/09/13 09:45:17;;;;;;;0.30;0.30;;;;;;;13.50;77.20;98920.72;5108549;28;20518;-70
2022/09/13 09:47:46;;;;;;;0.30;0.30;;;;;;;13.22;78.50;98914.13;5107885;28;20056;-68
2022/09/13 09:50:29;;;;;;;0.40;0.40;;;;;;;12.93;80.55;98903.19;5108313;28;20031;-69
2022/09/13 09:53:08;;;;;;;0.40;0.40;;;;;;;12.69;83.36;98905.91;5108354;28;20024;-69
2022/09/13 09:55:46;;;;;;;0.30;0.30;;;;;;;12.53;85.09;98890.94;5108527;28;20020;-69
2022/09/13 09:58:15;;;;;;;0.30;0.30;;;;;;;12.45;86.42;98887.78;5108391;28;20049;-69
2022/09/13 10:00:54;;;;;;;0.30;0.30;;;;;;;12.41;87.91;98888.84;5108273;28;20024;-69
2022/09/13 10:03:25;;;;;;;0.30;0.30;;;;;;;12.41;88.77;98897.50;5107929;28;20085;-69
2022/09/13 10:06:18;;;;;;;0.40;0.40;;;;;;;12.42;89.22;98893.13;5108114;28;20024;-68
2022/09/13 10:08:54;;;;;;;0.77;0.77;;;;;;;12.42;89.70;98888.78;5108071;28;20265;-69
2022/09/13 10:11:21;;;;;;;0.38;0.38;;;;;;;12.37;89.43;98868.16;5108044;28;20038;-67
2022/09/13 10:14:02;;;;;;;0.40;0.40;;;;;;;12.39;90.15;98862.88;5107990;28;20144;-68
2022/09/13 10:16:29;;;;;;;0.40;0.40;;;;;;;12.43;90.24;98864.44;5108128;28;20110;-69
2022/09/13 10:19:20;;;;;;;0.35;0.35;;;;;;;12.44;90.73;98857.47;5107738;28;20028;-69
2022/09/13 10:21:59;;;;;;;0.40;0.40;;;;;;;12.45;90.69;98849.63;5108001;28;20531;-70
2022/09/13 10:24:26;;;;;;;0.40;0.40;;;;;;;12.45;90.43;98840.94;5108162;28;20079;-69
2022/09/13 10:26:51;;;;;;;0.30;0.30;;;;;;;12.49;90.62;98843.34;5107750;28;20020;-69
2022/09/13 10:29:17;;;;;;;0.30;0.30;;;;;;;12.83;92.39;98842.84;5107690;28;20028;-70
2022/09/13 10:31:46;;;;;;;0.40;0.40;;;;;;;13.60;90.10;98837.75;5107554;28;20043;-72
2022/09/13 10:34:31;;;;;;;0.40;0.40;;;;;;;14.08;89.67;98835.53;5107523;28;20020;-73
2022/09/13 10:37:18;;;;;;;0.60;0.60;;;;;;;14.96;86.58;98841.69;5107670;28;20035;-72
2022/09/13 10:39:51;;;;;;;0.30;0.30;;;;;;;15.28;83.45;98838.28;5107595;28;20123;-72
2022/09/13 10:42:22;;;;;;;0.30;0.30;;;;;;;15.09;82.85;98827.06;5106586;28;20032;-72
2022/09/13 10:44:54;;;;;;;0.40;0.40;;;;;;;15.07;83.70;98836.75;5089447;28;20016;-76
2022/09/13 10:47:19;;;;;;;;;;;;;;;15.08;85.19;98835.81;5107300;28;20020;-77
2022/09/13 10:49:49;;;;;;;0.30;0.30;;;;;;;15.13;84.81;98827.72;5107398;28;19997;-77
2022/09/13 10:52:40;;;;;;;0.30;0.30;;;;;;;15.00;83.17;98832.75;5107150;28;20016;-79
2022/09/13 10:55:18;;;;;;;1.70;1.23;;;;;;;14.83;84.23;98826.66;5089155;28;20387;-77
2022/09/13 10:58:02;;;;;;;0.30;0.30;;;;;;;14.72;84.09;98828.94;5088995;28;20363;-77
2022/09/13 11:00:38;;;;;;;0.30;0.30;;;;;;;14.56;83.33;98821.03;5107145;28;20031;-79
2022/09/13 11:03:39;;;;;;;0.30;0.30;;;;;;;14.47;84.88;98819.75;5106854;28;20042;-81
2022/09/13 11:06:27;;;;;;;0.40;0.40;;;;;;;14.53;85.03;98811.59;5106883;28;20020;-76
2022/09/13 11:09:16;;;;;;;0.30;0.30;;;;;;;14.61;84.13;98822.50;5106870;28;20487;-76
2022/09/13 11:11:47;;;;;;;0.30;0.30;;;;;;;14.55;83.96;98812.38;5106881;28;20027;-77
2022/09/13 11:14:18;;;;;;;0.40;0.40;;;;;;;14.45;85.07;98817.19;5107024;28;20464;-81
2022/09/13 11:17:06;;;;;;;0.40;0.40;;;;;;;14.31;85.34;98807.47;5088535;28;20038;-75
2022/09/13 11:19:43;;;;;;;0.30;0.30;;;;;;;14.12;85.58;98803.13;5088467;28;20503;-75
2022/09/13 11:22:15;;;;;;;0.30;0.30;;;;;;;13.91;86.41;98806.78;5106660;28;20063;-76
2022/09/13 11:25:02;;;;;;;0.40;0.40;;;;;;;13.65;86.51;98801.91;5106911;28;20027;-76
2022/09/13 11:28:08;;;;;;;0.30;0.30;;;;;;;13.55;87.41;98811.03;5106175;28;20624;-74
2022/09/13 11:31:09;;;;;;;0.30;0.30;;;;;;;13.37;87.70;98793.56;5042676;28;20049;-75
2022/09/13 11:33:58;;;;;;;0.40;0.40;;;;;;;13.21;88.14;98790.81;5024953;28;20094;-74
2022/09/13 11:36:37;;;;;;;0.30;0.30;;;;;;;13.16;89.06;98790.19;5044315;28;20052;-75
2022/09/13 11:39:30;;;;;;;0.40;0.40;;;;;;;12.99;89.21;98793.53;5044253;28;20093;-73
2022/09/13 11:42:18;;;;;;;0.30;0.30;;;;;;;12.85;90.02;98802.81;5022241;28;20044;-71
2022/09/13 11:45:04;;;;;;;0.30;0.30;;;;;;;12.81;89.21;98756.13;5043989;28;20029;-69
2022/09/13 11:47:45;;;;;;;0.30;0.30;;;;;;;12.36;89.98;98775.34;5043372;28;20037;-69
2022/09/13 11:50:27;;;;;;;0.40;0.40;;;;;;;12.10;91.37;98756.50;5043845;28;20525;-70
2022/09/13 11:53:17;;;;;;;0.40;0.40;;;;;;;11.96;92.05;98764.84;5043557;28;20029;-68